createdAt,value
2017-05-31T00:00:37.393Z,74.16
2017-05-31T00:01:18.014Z,73.97
2017-05-31T00:01:58.534Z,74.36
2017-05-31T00:02:39.070Z,74.36
2017-05-31T00:03:19.684Z,74.45
2017-05-31T00:04:00.215Z,74.45
2017-05-31T00:04:40.903Z,74.26
2017-05-31T00:05:21.436Z,74.36
2017-05-31T00:06:02.107Z,74.55
2017-05-31T00:06:42.728Z,74.36
2017-05-31T00:07:23.391Z,74.26
2017-05-31T00:08:04.030Z,73.97
2017-05-31T00:08:44.654Z,74.26
2017-05-31T00:09:25.297Z,74.55
2017-05-31T00:10:05.867Z,74.36
2017-05-31T00:10:47.547Z,74.36
2017-05-31T00:11:29.214Z,74.36
2017-05-31T00:12:09.765Z,74.26
2017-05-31T00:12:50.301Z,74.26
2017-05-31T00:13:30.904Z,74.84
2017-05-31T00:14:11.543Z,74.36
2017-05-31T00:14:52.209Z,74.65
2017-05-31T00:15:33.901Z,74.65
2017-05-31T00:16:15.562Z,74.65
2017-05-31T00:16:56.080Z,74.65
2017-05-31T00:17:37.699Z,74.65
2017-05-31T00:18:18.327Z,74.55
2017-05-31T00:18:58.890Z,74.65
2017-05-31T00:19:39.592Z,74.84
2017-05-31T00:20:21.222Z,74.93
2017-05-31T00:21:01.863Z,75.02
2017-05-31T00:21:42.505Z,74.74
2017-05-31T00:22:23.169Z,74.84
2017-05-31T00:23:03.835Z,74.84
2017-05-31T00:23:44.411Z,74.74
2017-05-31T00:24:25.083Z,75.22
2017-05-31T00:25:05.640Z,75.22
2017-05-31T00:25:47.263Z,75.02
2017-05-31T00:26:27.827Z,75.22
2017-05-31T00:27:08.469Z,74.84
2017-05-31T00:27:49.000Z,75.12
2017-05-31T00:28:29.611Z,75.31
2017-05-31T00:29:10.310Z,75.12
2017-05-31T00:29:56.897Z,75.12
2017-05-31T00:30:37.558Z,75.31
2017-05-31T00:31:18.209Z,75.12
2017-05-31T00:31:58.761Z,75.02
2017-05-31T00:32:39.374Z,75.22
2017-05-31T00:33:20.054Z,75.85
2017-05-31T00:34:00.708Z,75.56
2017-05-31T00:34:41.239Z,75.56
2017-05-31T00:35:21.771Z,75.7
2017-05-31T00:36:02.354Z,75.66
2017-05-31T00:36:42.896Z,75.56
2017-05-31T00:37:23.496Z,75.47
2017-05-31T00:38:04.099Z,75.47
2017-05-31T00:38:44.648Z,75.66
2017-05-31T00:39:25.264Z,75.85
2017-05-31T00:40:05.913Z,75.56
2017-05-31T00:40:46.605Z,75.56
2017-05-31T00:41:27.152Z,75.66
2017-05-31T00:42:07.711Z,75.85
2017-05-31T00:42:48.218Z,75.56
2017-05-31T00:43:28.846Z,75.37
2017-05-31T00:44:09.502Z,75.66
2017-05-31T00:44:51.207Z,75.85
2017-05-31T00:45:31.820Z,76.04
2017-05-31T00:46:13.393Z,76.04
2017-05-31T00:46:54.139Z,76.04
2017-05-31T00:47:34.815Z,76.23
2017-05-31T00:48:15.453Z,75.95
2017-05-31T00:48:56.096Z,75.76
2017-05-31T00:49:36.759Z,75.95
2017-05-31T00:50:17.338Z,76.42
2017-05-31T00:50:57.987Z,76.52
2017-05-31T00:51:38.623Z,75.95
2017-05-31T00:52:19.253Z,76.52
2017-05-31T00:52:59.919Z,75.95
2017-05-31T00:53:40.508Z,75.95
2017-05-31T00:54:21.160Z,76.33
2017-05-31T00:55:01.719Z,76.14
2017-05-31T00:55:42.337Z,76.33
2017-05-31T00:56:22.878Z,76.23
2017-05-31T00:57:03.525Z,76.23
2017-05-31T00:57:44.056Z,76.52
2017-05-31T00:58:24.678Z,76.52
2017-05-31T00:59:05.177Z,76.52
2017-05-31T00:59:45.775Z,76.33
2017-05-31T01:00:26.432Z,76.52
2017-05-31T01:01:07.076Z,76.33
2017-05-31T01:01:47.660Z,76.42
2017-05-31T01:02:28.230Z,76.33
2017-05-31T01:03:08.876Z,76.42
2017-05-31T01:03:49.398Z,76.04
2017-05-31T01:04:30.004Z,76.62
2017-05-31T01:05:10.575Z,76.71
2017-05-31T01:05:51.280Z,76.62
2017-05-31T01:06:31.819Z,76.9
2017-05-31T01:07:12.383Z,77.19
2017-05-31T01:07:52.889Z,77.09
2017-05-31T01:08:33.426Z,76.9
2017-05-31T01:09:14.062Z,77
2017-05-31T01:09:54.588Z,77
2017-05-31T01:10:35.149Z,76.86
2017-05-31T01:11:15.686Z,76.67
2017-05-31T01:11:56.300Z,76.67
2017-05-31T01:12:36.810Z,76.81
2017-05-31T01:13:17.425Z,76.86
2017-05-31T01:13:57.981Z,76.96
2017-05-31T01:14:38.673Z,76.86
2017-05-31T01:15:19.197Z,76.77
2017-05-31T01:15:59.732Z,76.81
2017-05-31T01:16:40.342Z,76.86
2017-05-31T01:17:20.900Z,77.15
2017-05-31T01:18:01.503Z,77.15
2017-05-31T01:18:42.194Z,77.15
2017-05-31T01:19:22.824Z,77.06
2017-05-31T01:20:03.448Z,76.86
2017-05-31T01:20:44.004Z,77.15
2017-05-31T01:21:24.607Z,76.96
2017-05-31T01:22:05.102Z,76.86
2017-05-31T01:22:45.766Z,76.67
2017-05-31T01:23:26.287Z,76.77
2017-05-31T01:24:06.903Z,77.15
2017-05-31T01:24:47.394Z,76.48
2017-05-31T01:25:28.047Z,76.67
2017-05-31T01:26:08.555Z,76.48
2017-05-31T01:26:49.173Z,77.06
2017-05-31T01:27:29.698Z,76.77
2017-05-31T01:28:10.205Z,76.77
2017-05-31T01:28:50.849Z,77.06
2017-05-31T01:29:31.364Z,77.15
2017-05-31T01:30:11.949Z,77.06
2017-05-31T01:30:52.464Z,77.06
2017-05-31T01:31:33.083Z,76.67
2017-05-31T01:32:13.614Z,77.15
2017-05-31T01:32:54.180Z,77.06
2017-05-31T01:33:34.705Z,77.25
2017-05-31T01:34:15.326Z,77.25
2017-05-31T01:34:55.861Z,77.34
2017-05-31T01:35:36.377Z,77.44
2017-05-31T01:36:16.977Z,77.34
2017-05-31T01:36:57.513Z,77.06
2017-05-31T01:37:38.102Z,77.34
2017-05-31T01:38:18.618Z,77.15
2017-05-31T01:38:59.252Z,77.82
2017-05-31T01:39:39.830Z,77.72
2017-05-31T01:40:20.506Z,77.63
2017-05-31T01:41:01.150Z,77.44
2017-05-31T01:41:41.798Z,77.53
2017-05-31T01:42:22.444Z,77.72
2017-05-31T01:43:03.099Z,77.72
2017-05-31T01:43:43.750Z,77.53
2017-05-31T01:44:24.403Z,77.72
2017-05-31T01:45:05.057Z,77.44
2017-05-31T01:45:45.709Z,77.44
2017-05-31T01:46:26.395Z,77.82
2017-05-31T01:47:07.017Z,77.53
2017-05-31T01:47:47.668Z,77.53
2017-05-31T01:48:29.256Z,77.63
2017-05-31T01:49:09.897Z,77.53
2017-05-31T01:49:50.410Z,77.63
2017-05-31T01:50:31.027Z,77.44
2017-05-31T01:51:11.653Z,78.01
2017-05-31T01:51:52.184Z,78.01
2017-05-31T01:52:32.810Z,78.01
2017-05-31T01:53:13.408Z,78.01
2017-05-31T01:53:55.249Z,77.72
2017-05-31T01:54:36.912Z,77.72
2017-05-31T01:55:17.920Z,78.11
2017-05-31T01:55:58.439Z,78.11
2017-05-31T01:56:39.057Z,78.11
2017-05-31T01:57:19.674Z,78.11
2017-05-31T01:58:00.196Z,78.01
2017-05-31T01:58:40.799Z,78.11
2017-05-31T01:59:21.433Z,78.49
2017-05-31T02:00:01.946Z,78.49
2017-05-31T02:00:42.560Z,78.39
2017-05-31T02:01:23.160Z,78.39
2017-05-31T02:02:03.853Z,78.39
2017-05-31T02:02:44.388Z,78.2
2017-05-31T03:17:35.482Z,79.79
2017-05-31T03:18:16.105Z,79.79
2017-05-31T03:18:56.648Z,79.41
2017-05-31T03:19:37.158Z,79.69
2017-05-31T03:20:17.663Z,79.6
2017-05-31T03:20:58.277Z,79.41
2017-05-31T03:21:38.824Z,79.69
2017-05-31T03:22:19.379Z,79.6
2017-05-31T03:22:59.919Z,79.5
2017-05-31T03:23:40.423Z,79.69
2017-05-31T03:24:21.050Z,80.07
2017-05-31T03:25:01.630Z,79.5
2017-05-31T03:25:43.293Z,79.5
2017-05-31T03:26:23.813Z,79.69
2017-05-31T03:27:04.390Z,79.41
2017-05-31T03:27:44.935Z,79.5
2017-05-31T03:28:25.519Z,79.6
2017-05-31T03:29:06.056Z,79.41
2017-05-31T03:29:46.667Z,79.6
2017-05-31T03:30:27.161Z,79.5
2017-05-31T03:31:07.667Z,79.41
2017-05-31T03:31:48.240Z,79.41
2017-05-31T03:32:28.784Z,79.98
2017-05-31T03:33:09.437Z,79.98
2017-05-31T03:33:49.929Z,79.5
2017-05-31T03:34:30.522Z,80.17
2017-05-31T03:35:11.037Z,80.17
2017-05-31T03:35:51.680Z,80.07
2017-05-31T03:36:32.214Z,80.07
2017-05-31T03:37:12.823Z,79.98
2017-05-31T03:37:53.329Z,80.36
2017-05-31T03:38:33.839Z,80.36
2017-05-31T03:39:14.495Z,80.27
2017-05-31T03:39:54.984Z,80.27
2017-05-31T03:40:35.592Z,80.07
2017-05-31T03:41:16.121Z,80.07
2017-05-31T03:41:56.744Z,79.98
2017-05-31T03:42:37.346Z,80.36
2017-05-31T03:43:17.936Z,80.17
2017-05-31T03:43:58.490Z,80.27
2017-05-31T03:44:39.081Z,80.27
2017-05-31T03:45:19.630Z,80.36
2017-05-31T03:46:00.280Z,80.17
2017-05-31T03:46:40.826Z,79.98
2017-05-31T03:47:21.337Z,80.17
2017-05-31T03:48:01.957Z,80.27
2017-05-31T03:48:42.597Z,80.17
2017-05-31T03:49:23.190Z,80.27
2017-05-31T03:50:03.916Z,80.17
2017-05-31T03:50:44.472Z,79.98
2017-05-31T03:51:24.973Z,79.98
2017-05-31T03:52:05.524Z,79.98
2017-05-31T05:36:57.480Z,72.88
2017-05-31T05:37:38.115Z,72.78
2017-05-31T05:38:18.663Z,72.88
2017-05-31T05:38:59.334Z,73.22
2017-05-31T05:39:39.888Z,73.16
2017-05-31T05:40:20.433Z,73.13
2017-05-31T05:41:01.253Z,73.41
2017-05-31T05:41:42.071Z,73.51
2017-05-31T05:42:22.748Z,73.51
2017-05-31T05:43:03.274Z,73.41
2017-05-31T05:43:43.923Z,73.61
2017-05-31T05:44:25.044Z,73.61
2017-05-31T05:45:05.704Z,73.51
2017-05-31T05:45:46.614Z,73.51
2017-05-31T05:46:28.203Z,73.61
2017-05-31T05:47:08.761Z,73.8
2017-05-31T05:47:49.825Z,73.32
2017-05-31T05:48:30.373Z,73.61
2017-05-31T05:49:10.896Z,73.35
2017-05-31T05:49:51.495Z,73.35
2017-05-31T05:50:31.992Z,73.07
2017-05-31T05:51:13.621Z,73.16
2017-05-31T05:51:54.149Z,73.65
2017-05-31T05:52:35.114Z,73.07
2017-05-31T05:53:15.637Z,72.78
2017-05-31T05:53:56.319Z,73.1
2017-05-31T05:54:36.970Z,72.63
2017-05-31T05:55:17.473Z,72.53
2017-05-31T05:55:58.104Z,72.33
2017-05-31T05:56:38.626Z,72.24
2017-05-31T05:57:19.274Z,72.14
2017-05-31T05:57:59.888Z,72.28
2017-05-31T05:58:40.474Z,71.41
2017-05-31T05:59:21.009Z,71.51
2017-05-31T06:00:01.634Z,71.41
2017-05-31T06:00:42.159Z,71.31
2017-05-31T06:01:22.889Z,71.61
2017-05-31T06:02:03.409Z,71.41
2017-05-31T06:02:43.916Z,71.7
2017-05-31T06:03:24.604Z,71.7
2017-05-31T06:04:06.266Z,71.61
2017-05-31T06:04:46.872Z,71.8
2017-05-31T06:05:27.414Z,71.8
2017-05-31T06:06:07.973Z,71.7
2017-05-31T06:06:48.682Z,71.61
2017-05-31T06:07:29.290Z,71.51
2017-05-31T06:08:09.981Z,71.61
2017-05-31T06:08:51.557Z,71.7
2017-05-31T06:09:32.214Z,71.31
2017-05-31T06:10:12.809Z,71.51
2017-05-31T06:10:53.335Z,71.12
2017-05-31T06:11:33.840Z,70.87
2017-05-31T06:12:14.530Z,71.16
2017-05-31T06:12:55.072Z,70.68
2017-05-31T06:13:36.717Z,70.78
2017-05-31T06:14:18.369Z,71.06
2017-05-31T06:14:59.052Z,70.68
2017-05-31T06:15:39.601Z,70.68
2017-05-31T06:16:20.151Z,70.58
2017-05-31T06:17:00.688Z,70.49
2017-05-31T06:17:41.195Z,70.68
2017-05-31T06:18:21.779Z,70.39
2017-05-31T06:19:02.416Z,70.58
2017-05-31T06:19:42.943Z,70.68
2017-05-31T06:20:23.454Z,70.2
2017-05-31T06:21:04.144Z,70.43
2017-05-31T06:21:46.842Z,70.14
2017-05-31T06:22:28.446Z,70.14
2017-05-31T06:23:08.999Z,69.66
2017-05-31T06:23:50.720Z,69.18
2017-05-31T06:24:31.412Z,69.31
2017-05-31T06:25:11.980Z,69.31
2017-05-31T06:25:52.642Z,69.02
2017-05-31T06:26:33.292Z,68.92
2017-05-31T06:27:13.943Z,68.73
2017-05-31T06:27:54.591Z,68.63
2017-05-31T06:28:35.107Z,68.83
2017-05-31T06:29:15.715Z,68.92
2017-05-31T06:30:00.897Z,69.37
2017-05-31T06:30:41.538Z,69.5
2017-05-31T06:31:22.184Z,69.37
2017-05-31T06:32:02.849Z,69.85
2017-05-31T06:32:43.465Z,69.75
2017-05-31T06:33:23.998Z,69.85
2017-05-31T06:34:04.628Z,70.29
2017-05-31T06:34:45.301Z,70.01
2017-05-31T06:35:25.908Z,70.39
2017-05-31T06:36:06.426Z,70.2
2017-05-31T06:36:47.039Z,70.2
2017-05-31T06:37:27.575Z,70.29
2017-05-31T06:38:13.085Z,70.29
2017-05-31T06:38:53.625Z,70.29
2017-05-31T06:39:34.145Z,70.01
2017-05-31T06:40:14.770Z,70.49
2017-05-31T06:40:55.363Z,70.01
2017-05-31T06:41:36.042Z,70.39
2017-05-31T06:42:16.589Z,70.39
2017-05-31T06:42:57.195Z,70.78
2017-05-31T06:43:37.862Z,70.49
2017-05-31T06:44:19.494Z,70.29
2017-05-31T06:45:00.165Z,70.36
2017-05-31T06:45:40.871Z,70.49
2017-05-31T06:46:21.461Z,70.74
2017-05-31T06:47:02.304Z,70.64
2017-05-31T06:47:48.382Z,71.03
2017-05-31T06:48:29.981Z,71.12
2017-05-31T06:49:10.625Z,71.31
2017-05-31T06:49:53.243Z,71.47
2017-05-31T06:50:33.774Z,71.47
2017-05-31T06:51:14.380Z,71.47
2017-05-31T06:51:54.931Z,71.47
2017-05-31T06:52:36.555Z,71.66
2017-05-31T06:53:17.216Z,71.89
2017-05-31T06:54:02.387Z,71.57
2017-05-31T06:54:55.907Z,71.47
2017-05-31T06:55:37.533Z,72.05
2017-05-31T06:56:19.189Z,71.95
2017-05-31T06:56:59.834Z,71.86
2017-05-31T06:57:41.754Z,72.14
2017-05-31T06:58:23.432Z,72.33
2017-05-31T06:59:08.712Z,72.24
2017-05-31T06:59:51.538Z,72.24
2017-05-31T07:00:32.563Z,72.33
2017-05-31T07:01:14.040Z,72.14
2017-05-31T07:01:55.147Z,72.14
2017-05-31T07:02:35.983Z,72.14
2017-05-31T07:03:18.019Z,72.05
2017-05-31T07:03:59.117Z,72.14
2017-05-31T07:04:39.666Z,72.14
2017-05-31T07:05:21.280Z,72.14
2017-05-31T07:06:03.958Z,72.14
2017-05-31T07:06:44.619Z,72.24
2017-05-31T07:07:25.266Z,72.14
2017-05-31T07:08:05.777Z,72.14
2017-05-31T07:08:46.436Z,72.14
2017-05-31T07:09:28.109Z,72.05
2017-05-31T07:10:09.771Z,72.05
2017-05-31T07:10:50.396Z,72.14
2017-05-31T07:11:30.935Z,72.14
2017-05-31T07:12:16.431Z,72.33
2017-05-31T07:12:57.139Z,72.14
2017-05-31T07:13:37.798Z,72.14
2017-05-31T07:14:18.373Z,72.18
2017-05-31T07:15:00.969Z,72.24
2017-05-31T07:15:41.663Z,72.24
2017-05-31T07:16:22.254Z,72.24
2017-05-31T07:17:02.803Z,72.33
2017-05-31T07:17:43.542Z,72.24
2017-05-31T07:18:24.209Z,72.14
2017-05-31T07:19:04.728Z,72.18
2017-05-31T07:19:47.371Z,72.14
2017-05-31T07:20:27.910Z,72.08
2017-05-31T07:21:09.557Z,72.05
2017-05-31T07:21:50.139Z,72.18
2017-05-31T07:22:30.651Z,72.28
2017-05-31T07:23:11.266Z,72.37
2017-05-31T07:23:51.963Z,72.28
2017-05-31T07:24:32.646Z,72.37
2017-05-31T07:25:13.193Z,72.08
2017-05-31T07:25:54.785Z,72.37
2017-05-31T07:26:35.483Z,72.18
2017-05-31T07:27:18.193Z,71.89
2017-05-31T07:27:58.721Z,71.89
2017-05-31T07:28:40.375Z,71.98
2017-05-31T07:29:20.990Z,71.8
2017-05-31T07:30:01.761Z,72.28
2017-05-31T07:30:42.298Z,72.18
2017-05-31T07:31:22.918Z,72.18
2017-05-31T07:32:03.569Z,72.18
2017-05-31T07:32:44.275Z,72.18
2017-05-31T07:33:24.833Z,71.8
2017-05-31T07:34:05.511Z,71.8
2017-05-31T07:34:46.103Z,71.55
2017-05-31T07:35:26.687Z,71.51
2017-05-31T07:36:08.296Z,71.64
2017-05-31T07:36:53.608Z,71.45
2017-05-31T07:37:34.128Z,71.73
2017-05-31T07:38:14.715Z,71.64
2017-05-31T07:38:55.345Z,71.45
2017-05-31T07:39:35.879Z,70.97
2017-05-31T07:40:18.577Z,71.06
2017-05-31T07:41:01.222Z,70.97
2017-05-31T07:41:42.900Z,70.81
2017-05-31T07:42:23.443Z,70.43
2017-05-31T07:43:04.109Z,70.14
2017-05-31T07:43:44.715Z,70.07
2017-05-31T07:44:25.370Z,69.98
2017-05-31T07:45:05.885Z,69.6
2017-05-31T07:45:47.520Z,69.31
2017-05-31T07:46:28.094Z,69.34
2017-05-31T07:47:09.634Z,69.15
2017-05-31T07:47:50.186Z,68.96
2017-05-31T07:48:31.752Z,68.96
2017-05-31T07:49:12.311Z,68.76
2017-05-31T07:49:53.249Z,68.67
2017-05-31T07:50:38.325Z,68.67
2017-05-31T07:51:18.902Z,68.76
2017-05-31T07:51:59.440Z,68.51
2017-05-31T07:52:41.022Z,68.13
2017-05-31T07:53:21.547Z,67.93
2017-05-31T07:54:02.121Z,67.74
2017-05-31T07:54:42.757Z,67.74
2017-05-31T07:55:23.363Z,67.83
2017-05-31T07:56:03.961Z,67.65
2017-05-31T07:56:44.552Z,67.35
2017-05-31T07:57:25.593Z,67.74
2017-05-31T07:58:06.253Z,67.45
2017-05-31T07:58:46.887Z,67.74
2017-05-31T07:59:33.355Z,67.74
2017-05-31T08:00:13.975Z,67.74
2017-05-31T08:00:54.586Z,67.65
2017-05-31T08:01:35.164Z,67.87
2017-05-31T08:02:15.676Z,67.45
2017-05-31T08:02:56.334Z,67.35
2017-05-31T08:03:36.846Z,67.55
2017-05-31T08:04:17.444Z,67.16
2017-05-31T08:04:58.046Z,67.65
2017-05-31T08:05:38.623Z,67.74
2017-05-31T08:06:20.292Z,67.16
2017-05-31T08:07:00.833Z,67.45
2017-05-31T08:07:41.402Z,67.16
2017-05-31T08:08:21.986Z,67.29
2017-05-31T08:09:14.398Z,67.19
2017-05-31T08:09:54.923Z,66.71
2017-05-31T08:10:35.514Z,66.52
2017-05-31T08:11:16.050Z,66.52
2017-05-31T08:11:56.694Z,66.62
2017-05-31T08:12:37.302Z,66.52
2017-05-31T08:13:17.929Z,66.33
2017-05-31T08:13:59.495Z,66.52
2017-05-31T08:14:40.006Z,66.62
2017-05-31T08:15:20.596Z,66.52
2017-05-31T08:16:01.129Z,66.04
2017-05-31T08:16:41.661Z,65.59
2017-05-31T08:17:22.226Z,65.98
2017-05-31T08:18:02.760Z,65.78
2017-05-31T08:18:43.359Z,65.4
2017-05-31T08:19:23.960Z,65.69
2017-05-31T08:20:04.536Z,65.2
2017-05-31T08:20:45.090Z,65.43
2017-05-31T08:21:25.740Z,65.05
2017-05-31T08:22:06.379Z,64.56
2017-05-31T08:22:46.928Z,64.86
2017-05-31T08:23:27.478Z,65.14
2017-05-31T08:24:08.046Z,65.14
2017-05-31T08:24:48.681Z,64.56
2017-05-31T08:25:29.262Z,64.76
2017-05-31T08:26:09.840Z,64.86
2017-05-31T08:26:50.410Z,64.37
2017-05-31T08:27:30.917Z,64.76
2017-05-31T08:28:11.552Z,64.08
2017-05-31T08:28:52.167Z,64.18
2017-05-31T08:29:32.734Z,64.56
2017-05-31T08:30:13.307Z,64.37
2017-05-31T08:30:53.830Z,64.66
2017-05-31T08:31:34.384Z,64.76
2017-05-31T08:32:15.014Z,64.66
2017-05-31T08:32:55.653Z,64.76
2017-05-31T08:33:36.197Z,64.86
2017-05-31T08:34:16.879Z,64.86
2017-05-31T08:34:57.518Z,64.66
2017-05-31T08:35:38.815Z,64.18
2017-05-31T08:36:19.394Z,64.66
2017-05-31T08:37:00.218Z,64.37
2017-05-31T08:37:40.760Z,63.5
2017-05-31T08:38:21.321Z,63.5
2017-05-31T08:39:01.956Z,63.21
2017-05-31T08:39:42.591Z,63.34
2017-05-31T08:40:23.231Z,63.24
2017-05-31T08:41:03.758Z,63.41
2017-05-31T08:41:44.369Z,63.24
2017-05-31T08:42:24.887Z,63.24
2017-05-31T08:43:05.401Z,63.44
2017-05-31T08:43:46.021Z,62.96
2017-05-31T08:44:26.551Z,63.15
2017-05-31T08:45:07.120Z,62.96
2017-05-31T08:45:47.669Z,62.76
2017-05-31T08:46:29.244Z,63.06
2017-05-31T08:47:09.820Z,62.96
2017-05-31T08:47:50.448Z,63.24
2017-05-31T08:48:31.083Z,62.96
2017-05-31T08:49:11.681Z,62.96
2017-05-31T08:49:52.326Z,63.06
2017-05-31T08:50:32.988Z,62.86
2017-05-31T08:51:13.593Z,62.76
2017-05-31T08:51:54.118Z,62.18
2017-05-31T08:52:34.690Z,62.02
2017-05-31T08:53:15.277Z,62.02
2017-05-31T08:53:55.818Z,61.35
2017-05-31T08:54:36.440Z,61.38
2017-05-31T08:55:16.991Z,60.89
2017-05-31T08:55:57.515Z,60.61
2017-05-31T08:56:38.026Z,60.41
2017-05-31T08:57:18.554Z,60.41
2017-05-31T08:57:59.067Z,60.13
2017-05-31T08:58:39.582Z,60.51
2017-05-31T08:59:20.645Z,60.61
2017-05-31T09:00:01.241Z,60.58
2017-05-31T09:00:41.756Z,60.77
2017-05-31T09:01:22.354Z,61.25
2017-05-31T09:02:02.863Z,61.44
2017-05-31T09:02:43.376Z,61.61
2017-05-31T09:03:23.982Z,61.74
2017-05-31T09:04:04.638Z,62.09
2017-05-31T09:04:45.206Z,61.99
2017-05-31T09:05:25.866Z,61.99
2017-05-31T09:06:06.515Z,62.57
2017-05-31T09:06:47.042Z,62.48
2017-05-31T09:07:27.565Z,62.38
2017-05-31T09:08:08.196Z,62.48
2017-05-31T09:08:48.825Z,62.02
2017-05-31T09:09:29.367Z,61.71
2017-05-31T09:10:09.867Z,61.93
2017-05-31T09:10:50.494Z,61.41
2017-05-31T09:11:31.002Z,61.25
2017-05-31T09:12:11.635Z,61.25
2017-05-31T09:12:52.172Z,60.96
2017-05-31T09:13:32.779Z,60.68
2017-05-31T09:14:13.358Z,60.48
2017-05-31T09:14:53.885Z,60.51
2017-05-31T09:15:34.506Z,60.22
2017-05-31T09:16:15.137Z,60.13
2017-05-31T09:16:55.761Z,59.64
2017-05-31T09:17:36.385Z,59.64
2017-05-31T09:18:16.934Z,59
2017-05-31T09:18:57.433Z,58.9
2017-05-31T09:19:38.067Z,58.22
2017-05-31T09:20:18.616Z,57.93
2017-05-31T09:20:59.217Z,58.12
2017-05-31T09:21:39.745Z,57.74
2017-05-31T09:22:20.243Z,57.45
2017-05-31T09:23:00.853Z,57.29
2017-05-31T09:23:41.381Z,57.19
2017-05-31T09:24:21.970Z,56.8
2017-05-31T09:25:02.492Z,55.93
2017-05-31T09:25:43.103Z,55.65
2017-05-31T09:26:23.610Z,55.67
2017-05-31T09:27:04.223Z,55.29
2017-05-31T09:27:44.798Z,54.71
2017-05-31T09:28:25.298Z,54.22
2017-05-31T09:29:05.889Z,53.96
2017-05-31T09:29:46.454Z,54.15
2017-05-31T09:30:26.957Z,53.67
2017-05-31T09:31:07.468Z,53.57
2017-05-31T09:31:47.987Z,53.45
2017-05-31T09:32:28.528Z,53.64
2017-05-31T09:33:09.109Z,53.55
2017-05-31T09:33:49.682Z,53.45
2017-05-31T09:34:30.278Z,53.55
2017-05-31T09:35:10.781Z,53.83
2017-05-31T09:35:51.324Z,53.55
2017-05-31T09:36:31.918Z,53.35
2017-05-31T09:37:12.389Z,53.55
2017-05-31T09:37:52.982Z,53.45
2017-05-31T09:38:44.356Z,53.74
2017-05-31T09:39:31.883Z,53.64
2017-05-31T09:40:12.439Z,53.47
2017-05-31T09:40:54.009Z,52.61
2017-05-31T09:41:34.659Z,52.8
2017-05-31T09:42:15.186Z,52.61
2017-05-31T09:42:55.711Z,52.22
2017-05-31T09:43:36.710Z,52.41
2017-05-31T09:44:17.214Z,52.24
2017-05-31T09:44:57.733Z,51.66
2017-05-31T09:45:38.280Z,51.37
2017-05-31T09:46:18.888Z,50.98
2017-05-31T09:47:05.094Z,50.82
2017-05-31T09:47:45.616Z,50.79
2017-05-31T09:48:27.227Z,50.82
2017-05-31T09:49:07.826Z,50.72
2017-05-31T09:49:48.412Z,50.62
2017-05-31T09:50:28.965Z,50.82
2017-05-31T09:51:10.568Z,50.6
2017-05-31T09:51:53.141Z,50.82
2017-05-31T09:52:33.698Z,50.04
2017-05-31T09:53:14.331Z,50.14
2017-05-31T09:53:54.862Z,49.65
2017-05-31T09:54:35.490Z,50.14
2017-05-31T09:55:16.050Z,49.85
2017-05-31T09:55:56.564Z,49.37
2017-05-31T09:56:37.195Z,48.97
2017-05-31T09:57:17.831Z,49.39
2017-05-31T09:57:58.367Z,48.52
2017-05-31T09:58:38.955Z,48.22
2017-05-31T09:59:19.489Z,48.22
2017-05-31T10:00:00.014Z,48.35
2017-05-31T10:00:40.606Z,47.77
2017-05-31T10:01:21.360Z,47.77
2017-05-31T10:02:01.908Z,47.64
2017-05-31T10:02:42.488Z,47.55
2017-05-31T10:03:23.083Z,47.67
2017-05-31T10:04:04.146Z,47.64
2017-05-31T10:04:44.656Z,47.94
2017-05-31T10:05:25.283Z,48.32
2017-05-31T10:06:05.888Z,48.32
2017-05-31T10:06:46.517Z,48.39
2017-05-31T10:07:27.190Z,48.39
2017-05-31T10:08:07.700Z,48.39
2017-05-31T10:08:48.265Z,48.57
2017-05-31T10:09:28.905Z,49.05
2017-05-31T10:10:09.561Z,49.12
2017-05-31T10:10:50.196Z,49.87
2017-05-31T10:11:30.772Z,49.58
2017-05-31T10:12:11.306Z,50.26
2017-05-31T10:12:51.906Z,50.81
2017-05-31T10:13:32.533Z,50.81
2017-05-31T10:14:13.143Z,51.2
2017-05-31T10:14:53.792Z,51.59
2017-05-31T10:15:34.376Z,51.78
2017-05-31T10:16:14.952Z,52.26
2017-05-31T10:16:55.667Z,52.17
2017-05-31T10:17:36.256Z,52.07
2017-05-31T10:18:17.885Z,51.97
2017-05-31T10:18:58.486Z,52.23
2017-05-31T10:19:39.052Z,52.81
2017-05-31T10:20:21.678Z,52.43
2017-05-31T10:21:02.183Z,52.59
2017-05-31T10:21:42.751Z,52.5
2017-05-31T10:22:23.369Z,52.89
2017-05-31T10:23:03.902Z,53.37
2017-05-31T10:23:44.547Z,53.08
2017-05-31T10:24:25.173Z,53.37
2017-05-31T10:25:05.825Z,53.17
2017-05-31T10:25:46.355Z,52.89
2017-05-31T10:26:26.934Z,53.08
2017-05-31T10:27:07.512Z,53.47
2017-05-31T10:27:48.050Z,53.85
2017-05-31T10:28:28.682Z,53.47
2017-05-31T10:29:09.298Z,53.37
2017-05-31T10:29:49.876Z,53.37
2017-05-31T10:30:30.402Z,53.37
2017-05-31T10:31:10.975Z,53.66
2017-05-31T10:31:53.627Z,53.95
2017-05-31T10:32:34.251Z,53.95
2017-05-31T10:33:14.795Z,53.56
2017-05-31T10:33:55.420Z,53.37
2017-05-31T10:34:35.969Z,53.47
2017-05-31T10:35:16.552Z,53.66
2017-05-31T10:35:57.102Z,53.27
2017-05-31T10:36:37.701Z,52.91
2017-05-31T10:37:18.292Z,52.72
2017-05-31T10:37:58.827Z,52.72
2017-05-31T10:38:39.388Z,52.72
2017-05-31T10:39:20.040Z,52.81
2017-05-31T10:40:00.690Z,52.62
2017-05-31T10:40:41.648Z,51.85
2017-05-31T10:41:22.225Z,52.23
2017-05-31T10:42:02.853Z,52.33
2017-05-31T10:42:43.424Z,52.84
2017-05-31T10:43:23.991Z,52.55
2017-05-31T10:44:04.617Z,52.17
2017-05-31T10:44:45.155Z,51.87
2017-05-31T10:45:25.766Z,51.78
2017-05-31T10:46:06.379Z,51.39
2017-05-31T10:46:46.882Z,51.49
2017-05-31T10:47:27.537Z,51.23
2017-05-31T10:48:09.218Z,50.84
2017-05-31T10:48:49.795Z,50.55
2017-05-31T10:49:30.340Z,50.26
2017-05-31T10:50:10.973Z,50.35
2017-05-31T10:50:51.616Z,49.97
2017-05-31T10:51:32.222Z,49.9
2017-05-31T10:52:12.745Z,49.41
2017-05-31T10:52:53.325Z,49.15
2017-05-31T10:53:33.919Z,49.15
2017-05-31T10:54:14.542Z,48.37
2017-05-31T10:54:55.137Z,48.27
2017-05-31T10:55:35.874Z,48.47
2017-05-31T10:56:16.555Z,48.27
2017-05-31T10:56:57.229Z,48.37
2017-05-31T10:57:37.912Z,48.44
2017-05-31T10:58:18.589Z,49.12
2017-05-31T10:58:59.329Z,49.32
2017-05-31T10:59:39.928Z,49.39
2017-05-31T11:00:20.547Z,49.1
2017-05-31T11:01:01.098Z,49.6
2017-05-31T11:01:41.669Z,49.68
2017-05-31T11:02:22.413Z,49.77
2017-05-31T11:03:02.935Z,49.77
2017-05-31T11:03:43.469Z,49.77
2017-05-31T11:04:24.224Z,49.87
2017-05-31T11:05:04.773Z,49.49
2017-05-31T11:05:45.432Z,49.51
2017-05-31T11:06:26.037Z,49.51
2017-05-31T11:07:06.685Z,49.32
2017-05-31T11:07:47.238Z,49.51
2017-05-31T11:08:27.873Z,49.15
2017-05-31T11:09:08.673Z,49.24
2017-05-31T11:09:49.276Z,48.49
2017-05-31T11:10:29.886Z,48.39
2017-05-31T11:11:10.437Z,48.3
2017-05-31T11:40:15.856Z,50.81
2017-05-31T11:41:01.217Z,50.81
2017-05-31T11:41:41.721Z,50.71
2017-05-31T11:42:23.346Z,50.81
2017-05-31T13:02:46.400Z,42.29
2017-05-31T13:03:27.002Z,42.19
2017-05-31T13:16:25.542Z,45.68
2017-05-31T13:17:11.120Z,46.53
2017-05-31T13:17:51.647Z,46.73
2017-05-31T13:18:42.914Z,47.48
2017-05-31T13:19:23.414Z,48.13
2017-05-31T13:20:08.869Z,48.97
2017-05-31T13:20:49.483Z,48.97
2017-05-31T13:21:37.076Z,49.85
2017-05-31T13:22:22.487Z,50.59
2017-05-31T13:23:03.052Z,50.59
2017-05-31T13:23:43.621Z,51.37
2017-05-31T13:47:41.594Z,57.34
2017-05-31T13:48:22.205Z,57.24
2017-05-31T13:49:02.865Z,57.34
2017-05-31T13:49:43.366Z,57.14
2017-05-31T13:50:24.022Z,56.95
2017-05-31T13:51:04.629Z,56.95
2017-05-31T13:51:45.160Z,56.95
2017-05-31T13:52:25.864Z,57.14
2017-05-31T13:53:06.397Z,57.14
2017-05-31T13:53:46.974Z,56.95
2017-05-31T13:54:27.614Z,56.95
2017-05-31T13:55:08.202Z,57.14
2017-05-31T13:55:49.027Z,57.34
2017-05-31T13:56:29.638Z,56.95
2017-05-31T13:57:10.284Z,56.85
2017-05-31T13:57:51.191Z,57.05
2017-05-31T13:58:31.773Z,57.05
2017-05-31T13:59:12.320Z,57.05
2017-05-31T13:59:54.042Z,56.69
2017-05-31T14:00:34.593Z,57.27
2017-05-31T14:01:15.176Z,57.27
2017-05-31T14:01:55.857Z,57.17
2017-05-31T14:02:36.454Z,56.98
2017-05-31T14:03:17.024Z,56.88
2017-05-31T14:03:57.639Z,56.69
2017-05-31T14:04:38.225Z,56.69
2017-05-31T14:05:18.759Z,56.49
2017-05-31T14:05:59.290Z,56.59
2017-05-31T14:06:39.830Z,56.3
2017-05-31T14:07:20.434Z,56.4
2017-05-31T14:08:01.069Z,56.11
2017-05-31T14:08:41.716Z,55.82
2017-05-31T14:09:22.419Z,55.82
2017-05-31T14:10:03.022Z,55.92